Time;durP1;ratioP1;P1;durP2;ratioP2;P2;SDS_P1;SDS_P2;PMS_P1;PMS_P2;Temp;Humidity;BMP_temperature;BMP_pressure;BME280_temperature;BME280_humidity;BME280_pressure;Samples;Min_cycle;Max_cycle;Signal;HPM_P1;HPM_P2
2023/08/13 00:02:06;;;;;;;4.82;2.35;;;23.30;97.40;;;;;;5070332;28;20196;-65
2023/08/13 00:04:33;;;;;;;5.63;2.35;;;23.30;97.40;;;;;;5069570;28;20269;-65
2023/08/13 00:07:00;;;;;;;5.47;2.47;;;23.30;97.40;;;;;;5070607;28;20201;-64
2023/08/13 00:09:27;;;;;;;3.90;2.25;;;23.30;97.40;;;;;;5070218;28;20229;-65
2023/08/13 00:11:56;;;;;;;4.38;2.10;;;23.30;97.30;;;;;;5071271;28;20303;-65
2023/08/13 00:14:26;;;;;;;7.05;2.35;;;23.30;97.20;;;;;;5052684;28;20598;-65
2023/08/13 00:16:53;;;;;;;9.07;2.65;;;23.30;97.20;;;;;;5070120;28;20197;-64
2023/08/13 00:19:20;;;;;;;7.28;2.75;;;23.40;97.20;;;;;;5070196;28;20255;-65
2023/08/13 00:21:47;;;;;;;7.53;2.88;;;23.30;97.10;;;;;;5070473;28;20270;-65
2023/08/13 00:24:14;;;;;;;6.65;2.30;;;23.30;97.20;;;;;;5070166;28;20255;-65
2023/08/13 00:26:42;;;;;;;9.95;2.85;;;23.30;97.20;;;;;;5066094;28;20185;-65
2023/08/13 00:29:10;;;;;;;6.20;2.80;;;23.40;97.30;;;;;;5069869;28;20243;-65
2023/08/13 00:31:37;;;;;;;7.95;2.80;;;23.30;97.40;;;;;;5069480;28;20247;-64
2023/08/13 00:34:04;;;;;;;9.55;3.50;;;23.30;97.50;;;;;;5068946;28;20365;-65
2023/08/13 00:36:31;;;;;;;6.15;3.00;;;23.30;97.70;;;;;;5069111;28;20751;-65
2023/08/13 00:38:58;;;;;;;5.25;3.03;;;23.30;98.00;;;;;;5049623;28;20726;-65
2023/08/13 00:41:26;;;;;;;6.88;3.47;;;23.20;98.10;;;;;;5051658;28;20205;-65
2023/08/13 00:43:55;;;;;;;5.68;3.10;;;23.20;98.20;;;;;;5051670;28;20640;-65
2023/08/13 00:46:23;;;;;;;4.95;2.63;;;23.20;98.30;;;;;;5069115;28;20197;-65
2023/08/13 00:48:58;;;;;;;5.18;2.38;;;23.20;98.40;;;;;;5066586;28;20239;-65
2023/08/13 00:51:26;;;;;;;6.70;2.38;;;23.20;98.40;;;;;;5069012;28;20375;-65
2023/08/13 00:53:54;;;;;;;5.65;2.55;;;23.10;98.50;;;;;;5069075;28;20635;-65
2023/08/13 00:56:23;;;;;;;5.15;2.67;;;23.10;98.60;;;;;;5070315;28;20267;-65
2023/08/13 00:58:51;;;;;;;4.38;2.65;;;23.10;98.60;;;;;;5051848;28;20213;-65
2023/08/13 01:01:18;;;;;;;6.65;2.72;;;23.10;98.70;;;;;;5068828;28;20189;-65
2023/08/13 01:03:46;;;;;;;5.88;2.58;;;23.10;98.80;;;;;;5050040;28;20205;-65
2023/08/13 01:06:19;;;;;;;6.90;2.22;;;23.10;98.90;;;;;;5050898;28;20716;-65
2023/08/13 01:09:00;;;;;;;6.35;2.13;;;23.10;99.00;;;;;;5068918;28;20233;-65
2023/08/13 01:11:35;;;;;;;4.70;2.33;;;23.10;99.10;;;;;;5069628;28;20212;-66
2023/08/13 01:14:09;;;;;;;6.22;2.50;;;23.10;99.20;;;;;;5070245;28;20192;-65
2023/08/13 01:16:41;;;;;;;2.60;2.25;;;23.00;99.30;;;;;;5069741;28;20189;-64
2023/08/13 01:19:12;;;;;;;3.78;2.10;;;23.00;99.50;;;;;;5068603;28;20223;-65
2023/08/13 01:21:39;;;;;;;3.80;2.53;;;23.00;99.60;;;;;;5051436;28;20199;-66
2023/08/13 01:24:08;;;;;;;5.65;2.85;;;23.00;99.70;;;;;;5069756;28;20268;-64
2023/08/13 01:26:55;;;;;;;3.03;2.30;;;22.90;99.80;;;;;;5069715;28;20277;-66
2023/08/13 01:29:30;;;;;;;3.35;2.22;;;22.90;99.90;;;;;;5050979;28;20270;-64
2023/08/13 01:32:01;;;;;;;3.22;2.03;;;22.90;99.90;;;;;;5067536;28;20254;-64
2023/08/13 01:34:29;;;;;;;2.00;1.80;;;22.90;99.90;;;;;;5068217;28;20197;-64
2023/08/13 01:36:57;;;;;;;5.28;2.20;;;22.80;99.90;;;;;;5055827;28;20193;-63
2023/08/13 01:39:25;;;;;;;4.68;2.13;;;22.80;99.90;;;;;;5072285;28;20201;-63
2023/08/13 01:41:55;;;;;;;3.05;1.98;;;22.80;99.90;;;;;;5073230;28;20204;-64
2023/08/13 01:44:22;;;;;;;7.57;2.35;;;22.80;99.90;;;;;;5072748;28;20201;-64
2023/08/13 01:46:50;;;;;;;4.97;2.05;;;22.70;99.90;;;;;;5071782;28;20193;-64
2023/08/13 01:49:19;;;;;;;1.77;1.65;;;22.70;99.90;;;;;;5071823;28;20189;-64
2023/08/13 01:51:46;;;;;;;2.10;1.80;;;22.60;99.90;;;;;;5072298;28;20548;-64
2023/08/13 01:54:14;;;;;;;2.42;2.20;;;22.60;99.90;;;;;;5072584;28;20724;-64
2023/08/13 01:56:44;;;;;;;3.78;2.38;;;22.60;99.90;;;;;;5054904;28;20213;-64
2023/08/13 01:59:11;;;;;;;4.47;2.63;;;22.60;99.90;;;;;;5055216;28;20773;-64
2023/08/13 02:01:38;;;;;;;5.28;2.35;;;22.60;99.90;;;;;;5053402;28;20209;-64
2023/08/13 02:04:06;;;;;;;3.67;2.10;;;22.50;99.90;;;;;;5048957;28;20746;-65
2023/08/13 02:06:35;;;;;;;2.20;2.10;;;22.50;99.90;;;;;;5072101;28;20190;-65
2023/08/13 02:09:03;;;;;;;2.42;2.00;;;22.60;99.90;;;;;;5072637;28;20240;-64
2023/08/13 02:11:30;;;;;;;2.90;2.22;;;22.50;99.90;;;;;;5072571;28;20211;-64
2023/08/13 02:13:58;;;;;;;3.75;2.30;;;22.50;99.90;;;;;;5072835;28;20194;-64
2023/08/13 02:16:25;;;;;;;5.55;2.15;;;22.50;99.90;;;;;;5053974;28;20202;-64
2023/08/13 02:18:52;;;;;;;5.07;2.10;;;22.50;99.90;;;;;;5053605;28;20664;-65
2023/08/13 02:21:20;;;;;;;1.70;1.60;;;22.50;99.90;;;;;;5071577;28;20197;-65
2023/08/13 02:23:47;;;;;;;2.35;1.77;;;22.40;99.90;;;;;;5072293;28;20295;-65
2023/08/13 02:26:14;;;;;;;2.45;2.00;;;22.40;99.90;;;;;;5071911;28;20209;-65
2023/08/13 02:28:43;;;;;;;3.38;2.10;;;22.30;99.90;;;;;;5072425;28;20293;-65
2023/08/13 02:31:12;;;;;;;5.43;2.25;;;22.40;99.90;;;;;;5053241;28;20692;-65
2023/08/13 02:33:39;;;;;;;2.20;1.95;;;22.40;99.90;;;;;;5071570;28;20182;-65
2023/08/13 02:36:07;;;;;;;3.97;2.13;;;22.40;99.90;;;;;;5053351;28;20810;-65
2023/08/13 02:38:36;;;;;;;4.72;2.22;;;22.40;99.90;;;;;;5054297;28;20217;-65
2023/08/13 02:41:03;;;;;;;3.53;2.60;;;22.40;99.90;;;;;;5071422;28;20590;-64
2023/08/13 02:43:34;;;;;;;3.40;2.28;;;22.40;99.90;;;;;;5072552;28;20224;-64
2023/08/13 02:46:01;;;;;;;2.85;1.92;;;22.40;99.90;;;;;;5053369;28;20686;-64
2023/08/13 02:48:30;;;;;;;5.30;2.35;;;22.40;99.90;;;;;;5069482;28;20644;-64
2023/08/13 02:50:57;;;;;;;4.20;2.60;;;22.40;99.90;;;;;;5072463;28;20652;-64
2023/08/13 02:53:24;;;;;;;5.10;3.00;;;22.40;99.90;;;;;;5072035;28;20541;-64
2023/08/13 02:55:52;;;;;;;2.22;1.95;;;22.40;99.90;;;;;;5072228;28;20196;-64
2023/08/13 02:58:19;;;;;;;2.63;2.25;;;22.40;99.90;;;;;;5072427;28;20201;-65
2023/08/13 03:00:46;;;;;;;2.05;1.70;;;22.30;99.90;;;;;;5053107;28;20204;-65
2023/08/13 03:03:13;;;;;;;3.53;1.90;;;22.30;99.90;;;;;;5051299;28;20202;-66
2023/08/13 03:05:41;;;;;;;2.72;1.85;;;22.30;99.90;;;;;;5071070;28;20196;-66
2023/08/13 03:08:08;;;;;;;1.90;1.70;;;22.30;99.90;;;;;;5071761;28;20275;-64
2023/08/13 03:10:35;;;;;;;2.88;2.20;;;22.30;99.90;;;;;;5072281;28;20663;-64
2023/08/13 03:13:03;;;;;;;2.03;1.92;;;22.20;99.90;;;;;;5054064;28;20263;-64
2023/08/13 03:15:30;;;;;;;1.85;1.75;;;22.20;99.90;;;;;;5053352;28;20698;-65
2023/08/13 03:17:58;;;;;;;1.95;1.83;;;22.20;99.90;;;;;;5053335;28;20346;-64
2023/08/13 03:20:27;;;;;;;2.88;2.13;;;22.10;99.90;;;;;;5052863;28;20193;-65
2023/08/13 03:22:56;;;;;;;2.85;1.98;;;22.10;99.90;;;;;;5052832;28;20710;-65
2023/08/13 03:25:23;;;;;;;2.90;1.50;;;22.10;99.90;;;;;;5071425;28;20204;-64
2023/08/13 03:27:50;;;;;;;1.73;1.60;;;22.10;99.90;;;;;;5053820;28;20193;-64
2023/08/13 03:30:19;;;;;;;3.80;1.75;;;22.00;99.90;;;;;;5053110;28;20201;-65
2023/08/13 03:32:46;;;;;;;2.03;1.50;;;22.00;99.90;;;;;;5052399;28;20205;-65
2023/08/13 03:35:19;;;;;;;2.22;1.80;;;22.00;99.90;;;;;;5052978;28;20213;-64
2023/08/13 03:37:47;;;;;;;2.85;2.08;;;22.00;99.90;;;;;;5052239;28;20282;-64
2023/08/13 03:40:18;;;;;;;2.60;1.52;;;22.00;99.90;;;;;;5051210;28;20542;-64
2023/08/13 03:42:45;;;;;;;1.60;1.50;;;22.00;99.90;;;;;;5069021;28;20190;-64
2023/08/13 03:45:12;;;;;;;1.45;1.38;;;22.00;99.90;;;;;;5071066;28;20298;-65
2023/08/13 03:47:39;;;;;;;3.10;1.70;;;22.00;99.90;;;;;;5067836;28;20277;-64
2023/08/13 03:50:06;;;;;;;1.83;1.73;;;22.00;99.90;;;;;;5047201;28;20206;-65
2023/08/13 03:52:33;;;;;;;2.05;1.40;;;22.00;99.90;;;;;;5051444;28;20201;-65
2023/08/13 03:55:01;;;;;;;2.38;1.48;;;22.00;99.90;;;;;;5052157;28;20785;-65
2023/08/13 03:57:29;;;;;;;1.80;1.70;;;22.00;99.90;;;;;;5054090;28;20197;-64
2023/08/13 03:59:56;;;;;;;1.88;1.52;;;21.90;99.90;;;;;;5069667;28;20692;-64
2023/08/13 04:02:25;;;;;;;2.60;1.30;;;22.00;99.90;;;;;;5070473;28;20197;-64
2023/08/13 04:04:52;;;;;;;1.52;1.42;;;22.00;99.90;;;;;;5051497;28;20464;-64
2023/08/13 04:07:20;;;;;;;2.08;1.98;;;22.00;99.90;;;;;;5052509;28;20197;-64
2023/08/13 04:09:47;;;;;;;2.67;1.70;;;22.00;99.90;;;;;;5069844;28;20232;-64
2023/08/13 04:12:14;;;;;;;3.58;1.90;;;22.00;99.90;;;;;;5071011;28;20553;-65
2023/08/13 04:14:42;;;;;;;3.92;1.63;;;22.00;99.90;;;;;;5050924;28;20223;-65
2023/08/13 04:17:09;;;;;;;3.35;1.83;;;22.00;99.90;;;;;;5070327;28;20605;-65
2023/08/13 04:19:36;;;;;;;1.88;1.50;;;22.00;99.90;;;;;;5069098;28;20225;-65
2023/08/13 04:22:09;;;;;;;1.80;1.70;;;22.00;99.90;;;;;;5070336;28;20233;-66
2023/08/13 04:24:36;;;;;;;1.75;1.65;;;22.00;99.90;;;;;;5070141;28;20555;-66
2023/08/13 04:27:04;;;;;;;2.08;1.88;;;22.00;99.90;;;;;;5052112;28;20698;-65
2023/08/13 04:29:32;;;;;;;2.80;1.98;;;22.00;99.90;;;;;;5069223;28;20190;-65
2023/08/13 04:32:00;;;;;;;2.03;1.80;;;22.00;99.90;;;;;;5052903;28;20203;-64
2023/08/13 04:34:27;;;;;;;2.88;2.00;;;22.00;99.90;;;;;;5050932;28;20193;-65
2023/08/13 04:36:54;;;;;;;2.53;1.83;;;22.10;99.90;;;;;;5052077;28;20296;-64
2023/08/13 04:39:22;;;;;;;3.63;1.75;;;22.10;99.90;;;;;;5051103;28;20218;-64
2023/08/13 04:41:49;;;;;;;2.45;1.63;;;22.10;99.90;;;;;;5071440;28;20186;-64
2023/08/13 04:44:17;;;;;;;1.95;1.85;;;22.10;99.90;;;;;;5051410;28;20712;-64
2023/08/13 04:46:45;;;;;;;6.63;2.17;;;22.20;99.90;;;;;;5050374;28;20204;-64
2023/08/13 04:49:14;;;;;;;2.00;1.90;;;22.20;99.90;;;;;;5068527;28;20605;-65
2023/08/13 04:51:41;;;;;;;2.17;1.90;;;22.20;99.90;;;;;;5051570;28;20229;-64
2023/08/13 04:54:09;;;;;;;2.60;2.15;;;22.30;99.90;;;;;;5051427;28;20212;-64
2023/08/13 04:56:36;;;;;;;2.08;1.85;;;22.20;99.90;;;;;;5052278;28;20216;-64
2023/08/13 04:59:04;;;;;;;1.73;1.63;;;22.20;99.90;;;;;;5069910;28;20205;-65
2023/08/13 05:01:33;;;;;;;1.70;1.60;;;22.20;99.90;;;;;;5051104;28;20315;-64
2023/08/13 05:04:02;;;;;;;2.75;1.98;;;22.30;99.90;;;;;;5050952;28;20525;-64
2023/08/13 05:06:34;;;;;;;2.95;1.55;;;22.30;99.90;;;;;;5050196;28;20219;-65
2023/08/13 05:09:02;;;;;;;1.88;1.77;;;22.30;99.90;;;;;;5050753;28;20694;-65
2023/08/13 05:11:29;;;;;;;2.17;1.83;;;22.40;99.90;;;;;;5051761;28;20220;-65
2023/08/13 05:13:56;;;;;;;1.90;1.65;;;22.40;99.90;;;;;;5067627;28;20699;-65
2023/08/13 05:16:24;;;;;;;1.70;1.60;;;22.40;99.90;;;;;;5069233;28;20242;-65
2023/08/13 05:18:53;;;;;;;1.88;1.75;;;22.40;99.90;;;;;;5062771;28;20294;-65
2023/08/13 05:21:20;;;;;;;1.52;1.50;;;22.50;99.90;;;;;;5068904;28;20270;-65
2023/08/13 05:23:48;;;;;;;3.15;1.80;;;22.50;99.90;;;;;;5068514;28;20196;-65
2023/08/13 05:26:16;;;;;;;1.63;1.52;;;22.50;99.90;;;;;;5069234;28;20207;-65
2023/08/13 05:28:43;;;;;;;1.70;1.60;;;22.60;99.90;;;;;;5051004;28;20698;-64
2023/08/13 05:31:10;;;;;;;2.00;1.90;;;22.60;99.90;;;;;;5068349;28;20256;-65
2023/08/13 05:33:38;;;;;;;1.88;1.73;;;22.60;99.90;;;;;;5069507;28;20267;-65
2023/08/13 05:36:06;;;;;;;1.67;1.58;;;22.70;99.90;;;;;;5050251;28;20618;-64
2023/08/13 05:38:33;;;;;;;2.40;1.60;;;22.70;99.90;;;;;;5068197;28;20563;-65
2023/08/13 05:41:04;;;;;;;1.40;1.40;;;22.70;99.90;;;;;;5050083;28;20205;-65
2023/08/13 05:43:31;;;;;;;1.70;1.50;;;22.80;99.90;;;;;;5042074;28;20194;-65
2023/08/13 05:45:59;;;;;;;3.08;1.65;;;22.80;99.90;;;;;;5065869;28;20280;-65
2023/08/13 05:48:26;;;;;;;2.13;1.75;;;22.90;99.90;;;;;;5049589;28;20283;-65
2023/08/13 05:50:53;;;;;;;2.40;1.65;;;22.90;99.90;;;;;;5047088;28;20197;-65
2023/08/13 05:53:20;;;;;;;2.08;1.98;;;22.90;99.90;;;;;;5049444;28;20216;-65
2023/08/13 05:55:47;;;;;;;1.98;1.70;;;23.00;99.90;;;;;;5068847;28;20316;-65
2023/08/13 05:58:15;;;;;;;2.72;1.73;;;22.90;99.90;;;;;;5069075;28;20221;-65
2023/08/13 06:00:42;;;;;;;1.60;1.50;;;23.00;99.90;;;;;;5065230;28;20217;-65
2023/08/13 06:03:09;;;;;;;1.58;1.50;;;23.00;99.90;;;;;;5050376;28;20565;-64
2023/08/13 06:05:39;;;;;;;1.40;1.40;;;23.00;99.90;;;;;;5069965;28;20224;-65
2023/08/13 06:08:06;;;;;;;1.77;1.67;;;23.10;99.90;;;;;;5068733;28;20311;-65
2023/08/13 06:10:33;;;;;;;1.20;1.20;;;23.10;99.90;;;;;;5068310;28;20189;-65
2023/08/13 06:13:01;;;;;;;1.25;1.25;;;23.20;99.90;;;;;;5068722;28;20198;-65
2023/08/13 06:15:30;;;;;;;2.58;1.85;;;23.30;99.90;;;;;;5068178;28;20216;-65
2023/08/13 06:17:57;;;;;;;2.05;1.73;;;23.30;99.90;;;;;;5069033;28;20200;-65
2023/08/13 06:20:24;;;;;;;1.55;1.48;;;23.30;99.90;;;;;;5071761;28;20293;-65
2023/08/13 06:22:51;;;;;;;1.70;1.60;;;23.30;99.90;;;;;;5071629;28;20213;-64
2023/08/13 06:25:19;;;;;;;1.60;1.50;;;23.30;99.90;;;;;;5073173;28;20204;-65
2023/08/13 06:27:46;;;;;;;1.48;1.48;;;23.40;99.90;;;;;;5072377;28;20304;-65
2023/08/13 06:30:13;;;;;;;1.73;1.63;;;23.40;99.90;;;;;;5071599;28;20275;-65
2023/08/13 06:32:41;;;;;;;1.80;1.42;;;23.40;99.90;;;;;;5071944;28;20209;-65
2023/08/13 06:35:09;;;;;;;1.40;1.40;;;23.40;99.90;;;;;;5064591;28;20189;-65
2023/08/13 06:37:36;;;;;;;1.17;1.17;;;23.40;99.90;;;;;;5071435;28;20794;-65
2023/08/13 06:40:04;;;;;;;1.30;1.20;;;23.50;99.90;;;;;;5053389;28;20267;-65
2023/08/13 06:42:31;;;;;;;1.23;1.23;;;23.60;99.90;;;;;;5072190;28;20201;-65
2023/08/13 06:44:58;;;;;;;1.23;1.23;;;23.60;99.90;;;;;;5071619;28;20654;-65
2023/08/13 06:47:25;;;;;;;1.30;1.20;;;23.70;99.90;;;;;;5071146;28;20213;-65
2023/08/13 06:49:53;;;;;;;1.95;1.67;;;23.70;99.90;;;;;;5052991;28;20193;-65
2023/08/13 06:52:20;;;;;;;1.58;1.58;;;23.80;99.90;;;;;;5071730;28;20193;-65
2023/08/13 06:54:47;;;;;;;1.50;1.50;;;23.80;99.90;;;;;;5070832;28;20205;-65
2023/08/13 06:57:14;;;;;;;1.27;1.27;;;23.80;99.90;;;;;;5071945;28;20197;-65
2023/08/13 06:59:41;;;;;;;1.40;1.40;;;23.80;99.90;;;;;;5070834;28;20213;-65
2023/08/13 07:02:09;;;;;;;1.10;1.10;;;23.80;99.90;;;;;;5071737;28;20200;-65
2023/08/13 07:04:36;;;;;;;1.90;1.80;;;23.80;99.90;;;;;;5052529;28;20221;-65
2023/08/13 07:07:06;;;;;;;1.65;1.60;;;23.80;99.90;;;;;;5071758;28;20224;-64
2023/08/13 07:09:33;;;;;;;1.50;1.50;;;23.80;99.90;;;;;;5052380;28;20237;-65
2023/08/13 07:12:00;;;;;;;1.60;1.50;;;23.80;99.90;;;;;;5072386;28;20223;-64
2023/08/13 07:14:27;;;;;;;1.42;1.42;;;23.80;99.90;;;;;;5071563;28;20201;-64
2023/08/13 07:16:54;;;;;;;1.40;1.40;;;23.90;99.90;;;;;;5071518;28;20296;-64
2023/08/13 07:19:22;;;;;;;1.40;1.30;;;23.90;99.90;;;;;;5070885;28;20309;-65
2023/08/13 07:21:49;;;;;;;1.40;1.40;;;23.90;99.90;;;;;;5071993;28;20201;-64
2023/08/13 07:24:17;;;;;;;1.30;1.30;;;23.80;99.90;;;;;;5071235;28;20299;-64
2023/08/13 07:26:44;;;;;;;1.30;1.30;;;23.90;99.90;;;;;;5071501;28;20556;-64
2023/08/13 07:29:12;;;;;;;1.75;1.65;;;23.90;99.90;;;;;;5070689;28;20202;-64
2023/08/13 07:31:39;;;;;;;1.50;1.48;;;23.90;99.90;;;;;;5070058;28;20246;-65
2023/08/13 07:34:06;;;;;;;1.20;1.20;;;24.00;99.90;;;;;;5070247;28;20284;-65
2023/08/13 07:36:34;;;;;;;1.33;1.33;;;24.00;99.90;;;;;;5070472;28;20209;-65
2023/08/13 07:39:01;;;;;;;1.42;1.33;;;24.10;99.90;;;;;;5070697;28;20289;-65
2023/08/13 07:41:29;;;;;;;1.95;1.85;;;24.20;99.90;;;;;;5069311;28;20232;-65
2023/08/13 07:43:56;;;;;;;1.35;1.35;;;24.30;99.90;;;;;;5071816;28;20272;-65
2023/08/13 07:46:24;;;;;;;1.23;1.23;;;24.30;99.90;;;;;;5051704;28;20213;-65
2023/08/13 07:48:51;;;;;;;1.67;1.58;;;24.30;99.90;;;;;;5070247;28;20251;-65
2023/08/13 07:51:18;;;;;;;1.50;1.50;;;24.30;99.90;;;;;;5069955;28;20194;-65
2023/08/13 07:53:45;;;;;;;1.40;1.40;;;24.30;99.90;;;;;;5052800;28;20198;-64
2023/08/13 07:56:12;;;;;;;1.08;1.08;;;24.30;99.90;;;;;;5070077;28;20201;-64
2023/08/13 07:58:40;;;;;;;1.20;1.20;;;24.30;99.90;;;;;;5071211;28;20185;-65
2023/08/13 08:01:08;;;;;;;1.25;1.25;;;24.30;99.90;;;;;;5070062;28;20213;-64
2023/08/13 08:03:35;;;;;;;1.33;1.33;;;24.40;99.90;;;;;;5070298;28;20193;-65
2023/08/13 08:06:02;;;;;;;1.30;1.20;;;24.50;99.90;;;;;;5069477;28;20729;-64
2023/08/13 08:08:29;;;;;;;1.40;1.40;;;24.60;99.90;;;;;;5049073;28;20295;-65
2023/08/13 08:10:56;;;;;;;1.30;1.30;;;24.70;99.90;;;;;;5070396;28;20197;-65
2023/08/13 08:13:23;;;;;;;1.40;1.40;;;24.70;99.90;;;;;;5052616;28;20209;-65
2023/08/13 08:15:52;;;;;;;1.30;1.30;;;24.80;99.90;;;;;;5069736;28;20229;-65
2023/08/13 08:18:19;;;;;;;1.30;1.30;;;24.90;99.90;;;;;;5051659;28;20250;-65
2023/08/13 08:20:46;;;;;;;1.02;1.02;;;24.90;99.90;;;;;;5069135;28;20217;-65
2023/08/13 08:23:13;;;;;;;1.50;1.50;;;25.00;99.90;;;;;;5069716;28;20556;-65
2023/08/13 08:25:41;;;;;;;1.15;1.15;;;25.00;99.90;;;;;;5070076;28;20648;-66
2023/08/13 08:28:08;;;;;;;1.10;1.10;;;25.10;99.90;;;;;;5052449;28;20296;-65
2023/08/13 08:30:35;;;;;;;1.30;1.20;;;25.10;99.90;;;;;;5069494;28;20185;-65
2023/08/13 08:33:04;;;;;;;1.40;1.40;;;25.10;99.90;;;;;;5069415;28;20649;-65
2023/08/13 08:35:31;;;;;;;1.50;1.50;;;25.10;99.90;;;;;;5068154;28;20191;-65
2023/08/13 08:37:58;;;;;;;1.33;1.30;;;25.20;99.90;;;;;;5065528;28;20197;-63
2023/08/13 08:40:25;;;;;;;1.45;1.45;;;25.30;99.90;;;;;;5065177;28;20217;-63
2023/08/13 08:42:52;;;;;;;3.45;1.40;;;25.30;99.90;;;;;;5064356;28;20251;-63
2023/08/13 08:45:22;;;;;;;2.42;1.73;;;25.40;99.90;;;;;;5051704;28;20232;-63
2023/08/13 08:47:50;;;;;;;1.65;1.55;;;25.40;99.90;;;;;;5051450;28;20251;-62
2023/08/13 08:50:23;;;;;;;1.30;1.30;;;25.40;99.90;;;;;;5068728;28;20185;-63
2023/08/13 08:52:51;;;;;;;1.70;1.60;;;25.40;99.90;;;;;;5052189;28;20201;-63
2023/08/13 08:55:20;;;;;;;1.30;1.30;;;25.40;99.90;;;;;;5068757;28;20232;-62
2023/08/13 08:57:49;;;;;;;1.70;1.60;;;25.40;99.90;;;;;;5069617;28;20510;-62
2023/08/13 09:00:18;;;;;;;1.58;1.48;;;25.40;99.90;;;;;;5069204;28;20201;-62
2023/08/13 09:02:45;;;;;;;1.20;1.20;;;25.40;99.90;;;;;;5069022;28;20251;-62
2023/08/13 09:05:13;;;;;;;1.48;1.38;;;25.50;99.90;;;;;;5069437;28;20545;-63
2023/08/13 09:07:44;;;;;;;1.27;1.27;;;25.50;99.90;;;;;;5051481;28;20197;-63
2023/08/13 09:10:12;;;;;;;1.55;1.45;;;25.40;99.90;;;;;;5051754;28;20231;-64
2023/08/13 09:12:41;;;;;;;1.08;1.08;;;25.40;99.90;;;;;;5069980;28;20205;-64
2023/08/13 09:15:11;;;;;;;1.40;1.40;;;25.40;99.90;;;;;;5051765;28;20613;-64
2023/08/13 09:17:39;;;;;;;1.55;1.52;;;25.50;99.90;;;;;;5069523;28;20325;-64
2023/08/13 09:20:10;;;;;;;2.05;1.40;;;25.50;99.90;;;;;;5068884;28;20210;-63
2023/08/13 09:22:38;;;;;;;1.70;1.60;;;25.50;99.90;;;;;;5047691;28;20572;-63
2023/08/13 09:25:09;;;;;;;1.65;1.55;;;25.40;99.90;;;;;;5070044;28;20694;-63
2023/08/13 09:27:36;;;;;;;1.20;1.20;;;25.40;99.90;;;;;;5069117;28;20259;-63
2023/08/13 09:30:04;;;;;;;1.30;1.20;;;25.40;99.90;;;;;;5068730;28;20228;-63
2023/08/13 09:32:33;;;;;;;1.30;1.30;;;25.40;99.90;;;;;;5069093;28;20247;-63
2023/08/13 09:35:04;;;;;;;2.15;1.67;;;25.40;99.90;;;;;;5067880;28;20314;-63
2023/08/13 09:37:31;;;;;;;1.55;1.45;;;25.40;99.90;;;;;;5069244;28;20653;-64
2023/08/13 09:39:59;;;;;;;1.40;1.40;;;25.30;99.90;;;;;;5051150;28;20550;-64
2023/08/13 09:42:33;;;;;;;3.05;2.15;;;25.30;99.90;;;;;;5061559;28;20193;-63
2023/08/13 09:45:03;;;;;;;1.20;1.20;;;25.30;99.90;;;;;;5069291;28;20197;-63
2023/08/13 09:47:37;;;;;;;1.95;1.80;;;25.30;99.90;;;;;;5068724;28;20189;-63
2023/08/13 09:50:06;;;;;;;1.80;1.70;;;25.40;99.90;;;;;;5050052;28;20193;-62
2023/08/13 09:52:36;;;;;;;1.30;1.30;;;25.50;99.90;;;;;;5050788;28;20200;-62
2023/08/13 09:55:09;;;;;;;1.58;1.48;;;25.60;99.90;;;;;;5073654;28;20197;-62
2023/08/13 09:57:39;;;;;;;1.42;1.42;;;25.60;99.90;;;;;;5072135;28;20936;-63
2023/08/13 10:00:08;;;;;;;1.40;1.40;;;25.70;99.90;;;;;;5071670;28;20200;-63
2023/08/13 10:02:36;;;;;;;1.42;1.35;;;25.70;99.90;;;;;;5073173;28;20209;-63
2023/08/13 10:05:04;;;;;;;1.70;1.60;;;25.70;99.90;;;;;;5053718;28;20205;-62
2023/08/13 10:07:36;;;;;;;1.70;1.60;;;25.70;99.90;;;;;;5072821;28;20193;-63
2023/08/13 10:10:04;;;;;;;1.33;1.33;;;25.70;99.90;;;;;;5071982;28;20639;-63
2023/08/13 10:12:32;;;;;;;1.80;1.70;;;25.70;99.90;;;;;;5069523;28;20280;-63
2023/08/13 10:15:01;;;;;;;1.70;1.60;;;25.60;99.90;;;;;;5071153;28;20284;-63
2023/08/13 10:17:28;;;;;;;1.80;1.70;;;25.60;99.90;;;;;;5070600;28;20276;-62
2023/08/13 10:19:56;;;;;;;1.63;1.50;;;25.60;99.90;;;;;;5071582;28;20193;-63
2023/08/13 10:22:32;;;;;;;1.75;1.65;;;25.60;99.90;;;;;;5071352;28;20199;-62
2023/08/13 10:24:59;;;;;;;1.33;1.33;;;25.60;99.90;;;;;;5072662;28;20284;-62
2023/08/13 10:27:27;;;;;;;1.48;1.48;;;25.70;99.90;;;;;;5073155;28;20193;-62
2023/08/13 10:30:12;;;;;;;1.80;1.70;;;25.80;99.90;;;;;;5071848;28;20201;-62
2023/08/13 10:32:48;;;;;;;1.48;1.48;;;25.90;99.90;;;;;;5053383;28;20205;-63
2023/08/13 10:35:25;;;;;;;1.30;1.20;;;26.00;99.90;;;;;;5072131;28;20199;-63
2023/08/13 10:37:56;;;;;;;1.63;1.52;;;26.10;99.90;;;;;;5071711;28;20307;-63
2023/08/13 10:40:23;;;;;;;1.92;1.65;;;26.20;99.90;;;;;;5069385;28;20209;-63
2023/08/13 10:42:54;;;;;;;1.85;1.60;;;26.20;99.90;;;;;;5069130;28;20228;-63
2023/08/13 10:45:27;;;;;;;2.50;1.30;;;26.10;99.90;;;;;;5067791;28;20193;-63
2023/08/13 10:47:56;;;;;;;1.90;1.80;;;26.10;99.90;;;;;;5056513;28;20255;-63
2023/08/13 10:50:33;;;;;;;1.60;1.50;;;26.10;99.90;;;;;;5071823;28;20263;-63
2023/08/13 10:53:07;;;;;;;1.45;1.40;;;26.10;99.90;;;;;;5066978;28;20738;-62
2023/08/13 10:55:38;;;;;;;2.03;1.80;;;26.10;99.90;;;;;;5056818;28;20558;-63
2023/08/13 10:58:06;;;;;;;1.50;1.40;;;26.10;99.90;;;;;;5069842;28;20560;-62
2023/08/13 11:00:42;;;;;;;2.00;1.80;;;26.10;99.90;;;;;;5070956;28;20217;-62
2023/08/13 11:03:29;;;;;;;1.85;1.75;;;26.20;99.90;;;;;;5071745;28;20201;-62
2023/08/13 11:05:56;;;;;;;4.97;1.77;;;26.30;99.90;;;;;;5069175;28;20349;-62
2023/08/13 11:08:24;;;;;;;1.60;1.50;;;26.40;99.90;;;;;;5069146;28;20267;-62
2023/08/13 11:10:55;;;;;;;1.90;1.80;;;26.50;99.90;;;;;;5049489;28;20201;-62
2023/08/13 11:13:24;;;;;;;1.60;1.50;;;26.50;99.90;;;;;;5053949;28;20201;-62
2023/08/13 11:15:54;;;;;;;1.40;1.38;;;26.50;99.90;;;;;;5068743;28;20356;-61
2023/08/13 11:18:22;;;;;;;1.55;1.45;;;26.40;99.90;;;;;;5071609;28;20189;-62
2023/08/13 11:20:50;;;;;;;1.45;1.45;;;26.40;99.90;;;;;;5063949;28;20307;-61
2023/08/13 11:23:22;;;;;;;1.30;1.30;;;26.40;99.90;;;;;;5049369;28;20205;-62
2023/08/13 11:25:51;;;;;;;1.40;1.40;;;26.50;99.90;;;;;;5070281;28;20190;-61
2023/08/13 11:28:25;;;;;;;1.70;1.50;;;26.50;99.60;;;;;;5064998;28;20193;-61
2023/08/13 11:30:57;;;;;;;1.10;1.10;;;26.50;99.30;;;;;;5066539;28;20200;-61
2023/08/13 11:33:25;;;;;;;1.30;1.30;;;26.60;99.10;;;;;;5067937;28;20409;-62
2023/08/13 11:35:54;;;;;;;1.10;1.10;;;26.60;98.80;;;;;;5068251;28;20198;-62
2023/08/13 11:38:22;;;;;;;1.30;1.20;;;26.60;98.80;;;;;;5066078;28;20247;-63
2023/08/13 11:40:49;;;;;;;1.10;1.10;;;26.60;98.60;;;;;;5067294;28;20300;-63
2023/08/13 11:43:19;;;;;;;1.20;1.20;;;26.60;98.30;;;;;;5069599;28;20196;-62
2023/08/13 11:45:49;;;;;;;4.40;1.42;;;26.60;97.90;;;;;;5068997;28;20205;-62
2023/08/13 11:48:19;;;;;;;1.35;1.33;;;26.60;97.60;;;;;;5069862;28;20672;-62
2023/08/13 11:50:49;;;;;;;1.30;1.27;;;26.80;96.90;;;;;;5066600;28;20200;-63
2023/08/13 11:53:20;;;;;;;1.30;1.20;;;26.80;96.70;;;;;;5064096;28;20242;-62
2023/08/13 11:55:49;;;;;;;1.00;1.00;;;26.90;96.50;;;;;;5067068;28;20186;-63
2023/08/13 11:58:18;;;;;;;1.13;1.13;;;27.00;96.50;;;;;;5074469;28;20197;-63
2023/08/13 12:00:45;;;;;;;1.95;1.10;;;27.00;96.30;;;;;;5052201;28;20218;-63
2023/08/13 12:03:14;;;;;;;1.17;1.17;;;27.00;96.10;;;;;;5069021;28;20197;-61
2023/08/13 12:05:43;;;;;;;1.13;1.13;;;27.00;95.90;;;;;;5069249;28;20311;-61
2023/08/13 12:08:10;;;;;;;1.42;1.33;;;27.00;95.60;;;;;;5055985;28;20320;-62
2023/08/13 12:10:39;;;;;;;1.30;1.30;;;27.10;95.30;;;;;;5070024;28;20205;-62
2023/08/13 12:13:09;;;;;;;1.20;1.20;;;27.10;95.20;;;;;;5070056;28;20278;-63
2023/08/13 12:15:37;;;;;;;1.35;1.35;;;27.00;95.00;;;;;;5068422;28;20293;-63
2023/08/13 12:18:06;;;;;;;1.30;1.30;;;27.00;94.60;;;;;;5062697;28;20965;-62
2023/08/13 12:20:36;;;;;;;1.13;1.13;;;27.10;94.20;;;;;;5068091;28;20194;-62
2023/08/13 12:23:05;;;;;;;1.00;1.00;;;27.10;94.00;;;;;;5069064;28;20202;-62
2023/08/13 12:25:32;;;;;;;1.00;1.00;;;27.00;93.80;;;;;;5050590;28;20194;-63
2023/08/13 12:27:59;;;;;;;1.17;1.17;;;27.00;93.80;;;;;;5070468;28;20197;-63
2023/08/13 12:30:26;;;;;;;1.10;1.10;;;27.10;93.90;;;;;;5069178;28;20197;-63
2023/08/13 12:32:53;;;;;;;1.10;1.00;;;27.10;93.80;;;;;;5069577;28;20250;-63
2023/08/13 12:35:21;;;;;;;1.10;1.10;;;27.10;93.70;;;;;;5068892;28;20193;-61
2023/08/13 12:37:48;;;;;;;1.55;1.10;;;27.10;93.70;;;;;;5056686;28;20205;-61
2023/08/13 12:40:16;;;;;;;1.30;1.30;;;27.10;93.70;;;;;;5068649;28;20511;-62
2023/08/13 12:42:44;;;;;;;1.15;1.05;;;27.20;93.60;;;;;;5059147;28;20205;-62
2023/08/13 12:45:11;;;;;;;1.02;1.02;;;27.20;93.50;;;;;;5067246;28;20203;-62
2023/08/13 12:47:41;;;;;;;1.20;1.20;;;27.30;93.50;;;;;;5069159;28;20225;-61
2023/08/13 12:50:09;;;;;;;1.27;1.27;;;27.30;93.70;;;;;;5069284;28;20699;-61
2023/08/13 12:52:39;;;;;;;1.17;1.08;;;27.20;93.30;;;;;;5068209;28;20490;-62
2023/08/13 12:55:09;;;;;;;1.27;1.20;;;27.10;93.70;;;;;;5070261;28;20197;-62